Time;durP1;ratioP1;P1;durP2;ratioP2;P2;SDS_P1;SDS_P2;PMS_P1;PMS_P2;Temp;Humidity;BMP_temperature;BMP_pressure;BME280_temperature;BME280_humidity;BME280_pressure;Samples;Min_cycle;Max_cycle;Signal;HPM_P1;HPM_P2
2023/05/27 00:00:32;;;;;;;6.93;3.53;;;;;;;;;;5065128;28;20502;-69
2023/05/27 00:03:00;;;;;;;9.95;3.83;;;;;;;;;;5064703;28;20197;-69
2023/05/27 00:05:26;;;;;;;9.77;3.47;;;;;;;;;;5064825;28;20197;-69
2023/05/27 00:07:52;;;;;;;9.15;3.30;;;;;;;;;;5065069;28;20205;-69
2023/05/27 00:10:18;;;;;;;7.68;3.63;;;;;;;;;;5064835;28;20251;-69
2023/05/27 00:12:45;;;;;;;6.00;3.45;;;;;;;;;;5064824;28;20266;-69
2023/05/27 00:15:11;;;;;;;9.48;3.38;;;;;;;;;;5064594;28;20259;-69
2023/05/27 00:17:40;;;;;;;10.23;4.07;;;;;;;;;;5064352;28;20224;-69
2023/05/27 00:20:08;;;;;;;6.97;3.22;;;;;;;;;;5064600;28;20207;-70
2023/05/27 00:22:36;;;;;;;12.50;3.55;;;;;;;;;;5064886;28;20232;-70
2023/05/27 00:25:02;;;;;;;7.03;3.45;;;;;;;;;;5064132;28;20442;-70
2023/05/27 00:27:29;;;;;;;6.68;3.28;;;;;;;;;;5064530;28;20391;-70
2023/05/27 00:29:55;;;;;;;10.07;3.67;;;;;;;;;;5064591;28;20431;-70
2023/05/27 00:32:21;;;;;;;11.32;3.35;;;;;;;;;;5064342;28;20516;-70
2023/05/27 00:34:49;;;;;;;10.63;3.80;;;;;;;;;;5064086;28;20226;-67
2023/05/27 00:37:15;;;;;;;10.05;3.58;;;;;;;;;;5064347;28;20225;-68
2023/05/27 00:39:41;;;;;;;8.23;3.42;;;;;;;;;;5064435;28;20243;-68
2023/05/27 00:42:07;;;;;;;8.75;3.88;;;;;;;;;;5064345;28;20201;-68
2023/05/27 00:44:34;;;;;;;8.85;3.50;;;;;;;;;;5064198;28;20204;-68
2023/05/27 00:47:00;;;;;;;11.85;3.70;;;;;;;;;;5064217;28;20443;-68
2023/05/27 00:49:26;;;;;;;10.15;3.53;;;;;;;;;;5064051;28;20495;-68
2023/05/27 00:51:54;;;;;;;9.77;3.42;;;;;;;;;;5064259;28;20247;-68
2023/05/27 00:54:20;;;;;;;10.23;3.58;;;;;;;;;;5063965;28;20422;-68
2023/05/27 00:56:47;;;;;;;8.20;3.30;;;;;;;;;;5063941;28;20197;-68
2023/05/27 00:59:13;;;;;;;15.77;3.72;;;;;;;;;;5063870;28;20207;-69
2023/05/27 01:01:43;;;;;;;9.98;3.75;;;;;;;;;;5063828;28;20239;-69
2023/05/27 01:04:12;;;;;;;16.20;4.30;;;;;;;;;;5063851;28;20220;-68
2023/05/27 01:06:43;;;;;;;9.85;3.72;;;;;;;;;;5063938;28;20243;-68
2023/05/27 01:09:12;;;;;;;13.05;3.92;;;;;;;;;;5063913;28;20527;-68
2023/05/27 01:11:41;;;;;;;9.82;3.60;;;;;;;;;;5063659;28;20243;-68
2023/05/27 01:14:10;;;;;;;8.57;3.08;;;;;;;;;;5063346;28;20238;-68
2023/05/27 01:16:39;;;;;;;10.45;3.60;;;;;;;;;;5063580;28;20201;-68
2023/05/27 01:19:07;;;;;;;12.10;3.13;;;;;;;;;;5063694;28;20193;-68
2023/05/27 01:21:36;;;;;;;10.18;3.38;;;;;;;;;;5063806;28;20267;-68
2023/05/27 01:24:05;;;;;;;13.18;3.78;;;;;;;;;;5063189;28;20213;-68
2023/05/27 01:26:31;;;;;;;10.20;3.85;;;;;;;;;;5063371;28;20205;-68
2023/05/27 01:28:57;;;;;;;6.57;3.28;;;;;;;;;;5063240;28;20544;-68
2023/05/27 01:31:27;;;;;;;15.65;4.03;;;;;;;;;;5063426;28;20196;-68
2023/05/27 01:36:58;;;;;;;13.00;4.00;;;;;;;;;;5062208;28;20355;-68
2023/05/27 01:39:27;;;;;;;11.77;3.53;;;;;;;;;;5063059;28;20197;-68
2023/05/27 01:41:53;;;;;;;7.50;3.80;;;;;;;;;;5063392;28;20197;-68
2023/05/27 01:44:20;;;;;;;13.10;3.55;;;;;;;;;;5063054;28;20197;-68
2023/05/27 01:46:47;;;;;;;12.23;3.60;;;;;;;;;;5063105;28;20209;-68
2023/05/27 01:49:13;;;;;;;8.55;3.53;;;;;;;;;;5062880;28;20199;-68
2023/05/27 01:51:39;;;;;;;8.20;3.60;;;;;;;;;;5062912;28;20204;-68
2023/05/27 01:54:06;;;;;;;11.95;3.63;;;;;;;;;;5062598;28;20269;-68
2023/05/27 01:56:33;;;;;;;9.13;3.50;;;;;;;;;;5062990;28;20390;-68
2023/05/27 01:58:59;;;;;;;10.68;3.70;;;;;;;;;;5062689;28;20223;-68
2023/05/27 02:01:28;;;;;;;9.57;3.85;;;;;;;;;;5062835;28;20196;-69
2023/05/27 02:03:54;;;;;;;10.30;3.42;;;;;;;;;;5062852;28;20518;-68
2023/05/27 02:06:20;;;;;;;10.60;3.75;;;;;;;;;;5062724;28;20385;-68
2023/05/27 02:08:46;;;;;;;12.77;3.85;;;;;;;;;;5062622;28;20358;-69
2023/05/27 02:11:13;;;;;;;6.38;3.70;;;;;;;;;;5062632;28;20211;-70
2023/05/27 02:13:41;;;;;;;10.15;3.78;;;;;;;;;;5062159;28;20189;-70
2023/05/27 02:16:07;;;;;;;6.60;3.58;;;;;;;;;;5062506;28;20224;-69
2023/05/27 02:18:34;;;;;;;11.35;4.10;;;;;;;;;;5062545;28;20528;-68
2023/05/27 02:21:05;;;;;;;10.35;3.95;;;;;;;;;;5062246;28;20493;-68
2023/05/27 02:23:31;;;;;;;7.35;3.38;;;;;;;;;;5062370;28;20562;-70
2023/05/27 02:25:57;;;;;;;6.03;3.50;;;;;;;;;;5062423;28;20204;-69
2023/05/27 02:28:24;;;;;;;9.65;3.60;;;;;;;;;;5062411;28;20213;-69
2023/05/27 02:30:51;;;;;;;10.85;3.40;;;;;;;;;;5062288;28;20235;-69
2023/05/27 02:33:17;;;;;;;12.75;4.15;;;;;;;;;;5062134;28;20200;-70
2023/05/27 02:35:44;;;;;;;14.20;4.10;;;;;;;;;;5062084;28;20204;-70
2023/05/27 02:38:10;;;;;;;9.73;3.80;;;;;;;;;;5062308;28;20412;-70
2023/05/27 02:40:36;;;;;;;10.55;3.85;;;;;;;;;;5062125;28;20519;-70
2023/05/27 02:43:02;;;;;;;10.48;3.80;;;;;;;;;;5062048;28;20202;-70
2023/05/27 02:45:29;;;;;;;8.77;3.58;;;;;;;;;;5062006;28;20244;-70
2023/05/27 02:47:59;;;;;;;9.07;3.65;;;;;;;;;;5061761;28;20193;-70
2023/05/27 02:50:26;;;;;;;10.75;3.65;;;;;;;;;;5061215;28;20220;-70
2023/05/27 02:52:52;;;;;;;9.70;4.05;;;;;;;;;;5061888;28;20225;-70
2023/05/27 02:55:18;;;;;;;12.05;3.58;;;;;;;;;;5062037;28;20323;-70
2023/05/27 02:57:45;;;;;;;9.73;3.67;;;;;;;;;;5061894;28;20212;-70
2023/05/27 03:00:13;;;;;;;13.63;4.00;;;;;;;;;;5061946;28;20197;-70
2023/05/27 03:02:39;;;;;;;14.15;3.90;;;;;;;;;;5061731;28;20250;-70
2023/05/27 03:05:07;;;;;;;12.52;3.50;;;;;;;;;;5061659;28;20197;-69
2023/05/27 03:07:34;;;;;;;12.00;3.83;;;;;;;;;;5062086;28;20220;-69
2023/05/27 03:10:00;;;;;;;11.82;3.80;;;;;;;;;;5062046;28;20201;-69
2023/05/27 03:12:26;;;;;;;9.85;3.45;;;;;;;;;;5061770;28;20204;-69
2023/05/27 03:14:52;;;;;;;8.85;3.58;;;;;;;;;;5061520;28;20514;-69
2023/05/27 03:17:19;;;;;;;8.55;3.90;;;;;;;;;;5061574;28;20429;-69
2023/05/27 03:19:45;;;;;;;9.38;3.67;;;;;;;;;;5062017;28;20197;-69
2023/05/27 03:22:13;;;;;;;9.57;3.42;;;;;;;;;;5061636;28;20197;-69
2023/05/27 03:24:40;;;;;;;10.95;3.78;;;;;;;;;;5061568;28;20206;-69
2023/05/27 03:27:06;;;;;;;11.80;3.78;;;;;;;;;;5061686;28;20841;-69
2023/05/27 03:29:32;;;;;;;12.68;3.67;;;;;;;;;;5061671;28;20193;-69
2023/05/27 03:31:59;;;;;;;10.63;3.80;;;;;;;;;;5061490;28;20201;-69
2023/05/27 03:34:25;;;;;;;10.35;3.67;;;;;;;;;;5061670;28;20204;-69
2023/05/27 03:36:52;;;;;;;11.18;3.70;;;;;;;;;;5061712;28;20205;-69
2023/05/27 03:39:19;;;;;;;10.68;3.78;;;;;;;;;;5061605;28;20224;-69
2023/05/27 03:41:45;;;;;;;9.20;3.88;;;;;;;;;;5061680;28;20201;-69
2023/05/27 03:44:12;;;;;;;12.68;3.90;;;;;;;;;;5061471;28;20205;-69
2023/05/27 03:46:38;;;;;;;7.85;3.83;;;;;;;;;;5061412;28;20201;-69
2023/05/27 03:49:04;;;;;;;13.63;3.95;;;;;;;;;;5061626;28;20197;-69
2023/05/27 03:51:31;;;;;;;11.63;3.83;;;;;;;;;;5061492;28;20504;-69
2023/05/27 03:53:57;;;;;;;10.73;3.95;;;;;;;;;;5061378;28;20250;-69
2023/05/27 03:56:24;;;;;;;9.52;4.03;;;;;;;;;;5061367;28;20201;-69
2023/05/27 03:58:51;;;;;;;13.48;3.95;;;;;;;;;;5061373;28;20420;-69
2023/05/27 04:01:17;;;;;;;10.45;3.85;;;;;;;;;;5063793;28;20197;-69
2023/05/27 04:03:44;;;;;;;12.07;4.32;;;;;;;;;;5065024;28;20623;-69
2023/05/27 04:06:10;;;;;;;22.80;10.15;;;;;;;;;;5065189;28;20268;-69
2023/05/27 04:08:37;;;;;;;17.63;6.88;;;;;;;;;;5064962;28;20232;-69
2023/05/27 04:11:03;;;;;;;14.15;4.70;;;;;;;;;;5064992;28;20255;-70
2023/05/27 04:13:31;;;;;;;10.10;4.30;;;;;;;;;;5064487;28;20520;-70
2023/05/27 04:15:59;;;;;;;12.77;4.22;;;;;;;;;;5064602;28;20427;-70
2023/05/27 04:18:25;;;;;;;12.05;4.32;;;;;;;;;;5064660;28;20228;-70
2023/05/27 04:20:52;;;;;;;10.10;3.72;;;;;;;;;;5064710;28;20197;-69
2023/05/27 04:23:18;;;;;;;13.27;4.20;;;;;;;;;;5064413;28;20200;-69
2023/05/27 04:25:44;;;;;;;10.13;3.63;;;;;;;;;;5064583;28;20496;-69
2023/05/27 04:28:11;;;;;;;12.45;4.70;;;;;;;;;;5064439;28;20439;-69
2023/05/27 04:30:39;;;;;;;12.30;4.15;;;;;;;;;;5064458;28;20203;-69
2023/05/27 04:33:07;;;;;;;7.70;3.80;;;;;;;;;;5064157;28;20203;-69
2023/05/27 04:35:33;;;;;;;11.27;3.95;;;;;;;;;;5064355;28;20197;-70
2023/05/27 04:38:01;;;;;;;9.70;4.00;;;;;;;;;;5064214;28;20231;-70
2023/05/27 04:40:28;;;;;;;10.30;3.88;;;;;;;;;;5064196;28;20197;-70
2023/05/27 04:42:54;;;;;;;7.10;3.35;;;;;;;;;;5064008;28;20205;-70
2023/05/27 04:45:21;;;;;;;8.60;3.58;;;;;;;;;;5064466;28;20197;-70
2023/05/27 04:47:48;;;;;;;14.07;3.95;;;;;;;;;;5064312;28;20259;-70
2023/05/27 04:50:14;;;;;;;11.60;4.03;;;;;;;;;;5064158;28;20219;-70
2023/05/27 04:52:41;;;;;;;10.25;4.15;;;;;;;;;;5064097;28;20197;-70
2023/05/27 04:55:08;;;;;;;10.68;4.53;;;;;;;;;;5063811;28;20197;-70
2023/05/27 04:57:35;;;;;;;13.63;4.53;;;;;;;;;;5064149;28;20237;-70
2023/05/27 05:02:42;;;;;;;13.35;4.15;;;;;;;;;;5063613;28;20230;-70
2023/05/27 05:05:11;;;;;;;14.40;4.30;;;;;;;;;;5063641;28;20208;-70
2023/05/27 05:07:40;;;;;;;10.98;4.20;;;;;;;;;;5063733;28;20197;-70
2023/05/27 05:10:07;;;;;;;11.73;4.10;;;;;;;;;;5063817;28;20227;-70
2023/05/27 05:12:33;;;;;;;12.02;3.72;;;;;;;;;;5062829;28;20520;-70
2023/05/27 05:15:00;;;;;;;16.38;4.38;;;;;;;;;;5063668;28;20213;-70
2023/05/27 05:17:26;;;;;;;14.77;4.75;;;;;;;;;;5063643;28;20497;-70
2023/05/27 05:19:53;;;;;;;10.07;3.80;;;;;;;;;;5063499;28;20231;-70
2023/05/27 05:22:22;;;;;;;11.45;3.97;;;;;;;;;;5063402;28;20516;-70
2023/05/27 05:24:49;;;;;;;15.00;4.55;;;;;;;;;;5063109;28;20197;-70
2023/05/27 05:27:15;;;;;;;11.57;4.28;;;;;;;;;;5063532;28;20223;-70
2023/05/27 05:29:41;;;;;;;11.75;4.20;;;;;;;;;;5063424;28;20389;-70
2023/05/27 05:32:08;;;;;;;21.77;5.20;;;;;;;;;;5063441;28;20220;-70
2023/05/27 05:34:34;;;;;;;13.10;4.00;;;;;;;;;;5063132;28;20203;-70
2023/05/27 05:37:01;;;;;;;12.07;3.83;;;;;;;;;;5063225;28;20203;-68
2023/05/27 05:39:28;;;;;;;13.18;4.07;;;;;;;;;;5062906;28;20221;-68
2023/05/27 05:41:55;;;;;;;12.60;4.13;;;;;;;;;;5063172;28;20200;-68
2023/05/27 05:44:22;;;;;;;29.48;14.27;;;;;;;;;;5063050;28;20201;-68
2023/05/27 05:46:49;;;;;;;11.52;5.28;;;;;;;;;;5063222;28;20197;-68
2023/05/27 05:49:15;;;;;;;13.20;4.13;;;;;;;;;;5063072;28;20379;-68
2023/05/27 05:51:41;;;;;;;12.80;4.38;;;;;;;;;;5063499;28;20197;-68
2023/05/27 05:54:08;;;;;;;13.07;3.80;;;;;;;;;;5064243;28;20500;-68
2023/05/27 05:56:35;;;;;;;11.50;4.18;;;;;;;;;;5062942;28;20197;-68
2023/05/27 05:59:01;;;;;;;15.48;4.18;;;;;;;;;;5062761;28;20559;-68
2023/05/27 06:01:28;;;;;;;13.68;4.10;;;;;;;;;;5062529;28;20197;-68
2023/05/27 06:03:55;;;;;;;13.15;3.70;;;;;;;;;;5062326;28;20197;-68
2023/05/27 06:06:21;;;;;;;11.23;4.25;;;;;;;;;;5062944;28;20209;-68
2023/05/27 06:08:47;;;;;;;7.93;3.67;;;;;;;;;;5062720;28;20232;-68
2023/05/27 06:11:13;;;;;;;11.82;4.18;;;;;;;;;;5062828;28;20366;-68
2023/05/27 06:13:41;;;;;;;8.90;3.72;;;;;;;;;;5062365;28;20197;-69
2023/05/27 06:16:07;;;;;;;14.77;4.25;;;;;;;;;;5062550;28;20520;-69
2023/05/27 06:18:34;;;;;;;10.50;3.88;;;;;;;;;;5062200;28;20536;-69
2023/05/27 06:21:00;;;;;;;15.32;4.00;;;;;;;;;;5062530;28;20197;-69
2023/05/27 06:23:26;;;;;;;15.20;4.00;;;;;;;;;;5062157;28;20197;-69
2023/05/27 06:25:53;;;;;;;12.98;4.00;;;;;;;;;;5062513;28;20201;-69
2023/05/27 06:28:19;;;;;;;13.70;3.83;;;;;;;;;;5062355;28;20224;-69
2023/05/27 06:30:46;;;;;;;13.18;4.15;;;;;;;;;;5062291;28;20211;-69
2023/05/27 06:33:13;;;;;;;10.70;3.67;;;;;;;;;;5061915;28;20209;-69
2023/05/27 06:35:39;;;;;;;10.63;3.83;;;;;;;;;;5062224;28;20197;-69
2023/05/27 06:38:05;;;;;;;10.77;4.00;;;;;;;;;;5061992;28;20200;-69
2023/05/27 06:40:31;;;;;;;12.95;4.07;;;;;;;;;;5062078;28;20221;-69
2023/05/27 06:42:58;;;;;;;11.05;4.10;;;;;;;;;;5061950;28;20201;-69
2023/05/27 06:45:24;;;;;;;8.73;3.78;;;;;;;;;;5062060;28;20197;-69
2023/05/27 06:47:52;;;;;;;12.70;4.50;;;;;;;;;;5061844;28;20197;-69
2023/05/27 06:50:18;;;;;;;11.25;4.10;;;;;;;;;;5061997;28;20197;-69
2023/05/27 06:52:44;;;;;;;13.48;4.45;;;;;;;;;;5062225;28;20197;-69
2023/05/27 06:55:11;;;;;;;11.40;4.18;;;;;;;;;;5062119;28;20197;-69
2023/05/27 06:57:37;;;;;;;12.98;4.70;;;;;;;;;;5062098;28;20504;-69
2023/05/27 07:00:05;;;;;;;12.15;4.47;;;;;;;;;;5062275;28;20516;-69
2023/05/27 07:02:32;;;;;;;10.85;3.88;;;;;;;;;;5061882;28;20197;-69
2023/05/27 07:04:59;;;;;;;11.02;3.95;;;;;;;;;;5061781;28;20197;-69
2023/05/27 07:07:26;;;;;;;9.95;3.72;;;;;;;;;;5061853;28;20197;-67
2023/05/27 07:09:53;;;;;;;10.98;4.03;;;;;;;;;;5061727;28;20533;-68
2023/05/27 07:12:21;;;;;;;9.68;4.22;;;;;;;;;;5061667;28;20205;-68
2023/05/27 07:14:47;;;;;;;15.05;4.10;;;;;;;;;;5061378;28;20215;-68
2023/05/27 07:17:13;;;;;;;10.18;4.47;;;;;;;;;;5061960;28;20197;-68
2023/05/27 07:19:39;;;;;;;12.38;4.10;;;;;;;;;;5061714;28;20228;-69
2023/05/27 07:22:07;;;;;;;11.65;4.65;;;;;;;;;;5061431;28;20197;-70
2023/05/27 07:24:33;;;;;;;10.43;4.47;;;;;;;;;;5061488;28;20197;-70
2023/05/27 07:26:59;;;;;;;10.98;3.88;;;;;;;;;;5061531;28;20423;-68
2023/05/27 07:29:26;;;;;;;10.98;4.22;;;;;;;;;;5061486;28;20500;-68
2023/05/27 07:31:52;;;;;;;11.20;4.25;;;;;;;;;;5061692;28;20492;-68
2023/05/27 07:34:18;;;;;;;9.35;4.03;;;;;;;;;;5061537;28;20524;-68
2023/05/27 07:36:44;;;;;;;12.48;4.35;;;;;;;;;;5065420;28;20197;-68
2023/05/27 07:39:12;;;;;;;11.15;4.20;;;;;;;;;;5065312;28;20213;-69
2023/05/27 07:41:38;;;;;;;11.60;4.28;;;;;;;;;;5065272;28;20201;-69
2023/05/27 07:44:04;;;;;;;10.15;4.35;;;;;;;;;;5065333;28;20204;-69
2023/05/27 07:46:32;;;;;;;17.85;8.25;;;;;;;;;;5065876;28;20197;-69
2023/05/27 07:48:58;;;;;;;14.77;5.32;;;;;;;;;;5065485;28;20223;-69
2023/05/27 07:51:24;;;;;;;12.30;4.90;;;;;;;;;;5066389;28;20223;-61
2023/05/27 07:53:51;;;;;;;11.88;5.05;;;;;;;;;;5066253;28;20231;-61
2023/05/27 07:56:18;;;;;;;11.55;4.63;;;;;;;;;;5066406;28;20493;-61
2023/05/27 07:58:45;;;;;;;11.45;4.45;;;;;;;;;;5066182;28;20394;-61
2023/05/27 08:01:11;;;;;;;9.90;4.72;;;;;;;;;;5066830;28;20396;-61
2023/05/27 08:03:37;;;;;;;11.32;4.82;;;;;;;;;;5067072;28;20204;-61
2023/05/27 08:06:04;;;;;;;14.68;4.53;;;;;;;;;;5066889;28;20205;-61
2023/05/27 08:08:30;;;;;;;8.40;4.15;;;;;;;;;;5066530;28;20197;-61
2023/05/27 08:10:57;;;;;;;11.55;4.60;;;;;;;;;;5066529;28;20194;-61
2023/05/27 08:13:24;;;;;;;12.65;4.13;;;;;;;;;;5066719;28;20201;-61
2023/05/27 08:15:51;;;;;;;7.10;3.58;;;;;;;;;;5066135;28;20528;-60
2023/05/27 08:18:17;;;;;;;8.73;3.80;;;;;;;;;;5060819;28;20536;-62
2023/05/27 08:20:44;;;;;;;14.00;4.55;;;;;;;;;;5061615;28;20236;-59
2023/05/27 08:23:11;;;;;;;14.02;4.65;;;;;;;;;;5062445;28;20411;-59
2023/05/27 08:25:37;;;;;;;11.65;4.40;;;;;;;;;;5063124;28;20528;-59
2023/05/27 08:28:03;;;;;;;8.40;3.90;;;;;;;;;;5063315;28;20583;-59
2023/05/27 08:30:31;;;;;;;13.38;4.68;;;;;;;;;;5062978;28;20505;-60
2023/05/27 08:32:57;;;;;;;8.55;4.00;;;;;;;;;;5062886;28;20398;-59
2023/05/27 08:35:24;;;;;;;13.23;4.47;;;;;;;;;;5063329;28;20205;-59
2023/05/27 08:37:50;;;;;;;11.25;4.32;;;;;;;;;;5063099;28;20434;-60
2023/05/27 08:40:17;;;;;;;10.18;4.40;;;;;;;;;;5062465;28;20221;-60
2023/05/27 08:42:43;;;;;;;7.90;4.18;;;;;;;;;;5062922;28;20204;-60
2023/05/27 08:45:10;;;;;;;14.40;4.80;;;;;;;;;;5062655;28;20209;-59
2023/05/27 08:47:38;;;;;;;8.82;4.35;;;;;;;;;;5063009;28;20275;-59
2023/05/27 08:50:04;;;;;;;11.48;4.25;;;;;;;;;;5062682;28;20382;-59
2023/05/27 08:52:31;;;;;;;8.93;4.20;;;;;;;;;;5062808;28;20193;-60
2023/05/27 08:54:58;;;;;;;12.93;4.88;;;;;;;;;;5062584;28;20582;-59
2023/05/27 08:57:28;;;;;;;7.60;4.43;;;;;;;;;;5062872;28;20227;-59
2023/05/27 08:59:54;;;;;;;10.50;4.68;;;;;;;;;;5063466;28;20227;-60
2023/05/27 09:02:21;;;;;;;9.05;4.22;;;;;;;;;;5064012;28;20442;-61
2023/05/27 09:04:49;;;;;;;12.38;4.07;;;;;;;;;;5064268;28;20454;-61
2023/05/27 09:07:16;;;;;;;6.32;4.22;;;;;;;;;;5064528;28;20204;-61
2023/05/27 09:09:43;;;;;;;11.35;4.57;;;;;;;;;;5064753;28;20228;-61
2023/05/27 09:12:09;;;;;;;8.90;4.47;;;;;;;;;;5064644;28;20586;-61
2023/05/27 09:14:37;;;;;;;7.88;4.18;;;;;;;;;;5063195;28;20462;-61
2023/05/27 09:17:06;;;;;;;13.00;4.72;;;;;;;;;;5064108;28;20407;-61
2023/05/27 09:19:32;;;;;;;13.32;4.60;;;;;;;;;;5062838;28;20216;-61
2023/05/27 09:21:59;;;;;;;7.72;3.90;;;;;;;;;;5063386;28;20251;-61
2023/05/27 09:24:26;;;;;;;9.68;4.95;;;;;;;;;;5063745;28;20205;-61
2023/05/27 09:26:53;;;;;;;9.07;4.57;;;;;;;;;;5063527;28;20237;-61
2023/05/27 09:29:19;;;;;;;9.68;4.82;;;;;;;;;;5063699;28;20517;-61
2023/05/27 09:31:45;;;;;;;8.88;4.43;;;;;;;;;;5063904;28;20229;-61
2023/05/27 09:34:13;;;;;;;9.93;4.35;;;;;;;;;;5063769;28;20504;-61
2023/05/27 09:36:42;;;;;;;10.40;4.50;;;;;;;;;;5063611;28;20496;-61
2023/05/27 09:39:11;;;;;;;7.15;4.15;;;;;;;;;;5063784;28;20504;-61
2023/05/27 09:41:38;;;;;;;9.00;4.68;;;;;;;;;;5063590;28;20223;-61
2023/05/27 09:44:05;;;;;;;14.00;4.82;;;;;;;;;;5063337;28;20197;-61
2023/05/27 09:46:32;;;;;;;10.43;5.18;;;;;;;;;;5063417;28;20197;-61
2023/05/27 09:48:59;;;;;;;9.95;4.38;;;;;;;;;;5063304;28;20201;-61
2023/05/27 09:51:26;;;;;;;9.27;4.72;;;;;;;;;;5063696;28;20247;-61
2023/05/27 09:53:54;;;;;;;8.90;4.82;;;;;;;;;;5063421;28;20197;-61
2023/05/27 09:56:22;;;;;;;11.00;4.20;;;;;;;;;;5063467;28;20270;-61
2023/05/27 09:58:49;;;;;;;8.70;4.85;;;;;;;;;;5062596;28;20197;-61
2023/05/27 10:01:17;;;;;;;10.40;4.60;;;;;;;;;;5063087;28;20217;-61
2023/05/27 10:03:44;;;;;;;16.95;5.15;;;;;;;;;;5062745;28;20224;-62
2023/05/27 10:06:12;;;;;;;11.43;4.47;;;;;;;;;;5063098;28;20267;-61
2023/05/27 10:08:39;;;;;;;7.70;4.55;;;;;;;;;;5063154;28;20441;-61
2023/05/27 10:11:05;;;;;;;9.23;4.45;;;;;;;;;;5062875;28;20306;-62
2023/05/27 10:13:33;;;;;;;8.80;4.53;;;;;;;;;;5062806;28;20263;-61
2023/05/27 10:15:59;;;;;;;13.25;4.95;;;;;;;;;;5062795;28;20212;-61
2023/05/27 10:18:26;;;;;;;7.70;4.50;;;;;;;;;;5062989;28;20205;-61
2023/05/27 10:20:53;;;;;;;8.18;4.78;;;;;;;;;;5062828;28;20216;-61
2023/05/27 10:23:21;;;;;;;13.02;4.38;;;;;;;;;;5062678;28;20276;-62
2023/05/27 10:25:48;;;;;;;10.00;4.22;;;;;;;;;;5062851;28;20196;-62
2023/05/27 10:28:24;;;;;;;12.45;4.90;;;;;;;;;;5062671;28;20217;-61
2023/05/27 10:30:51;;;;;;;10.65;4.60;;;;;;;;;;5062701;28;20200;-61
2023/05/27 10:33:17;;;;;;;11.63;5.20;;;;;;;;;;5062578;28;20522;-61
2023/05/27 10:35:45;;;;;;;9.02;4.60;;;;;;;;;;5062661;28;20508;-61
2023/05/27 10:38:15;;;;;;;9.13;4.93;;;;;;;;;;5062648;28;20379;-61
2023/05/27 10:40:41;;;;;;;17.30;4.65;;;;;;;;;;5062301;28;20223;-61
2023/05/27 10:43:15;;;;;;;8.38;4.20;;;;;;;;;;5061957;28;20201;-63
2023/05/27 10:45:41;;;;;;;8.35;4.45;;;;;;;;;;5062619;28;20227;-61
2023/05/27 10:48:16;;;;;;;6.35;4.00;;;;;;;;;;5062399;28;20234;-61
2023/05/27 10:50:50;;;;;;;9.55;4.88;;;;;;;;;;5062528;28;20215;-62
2023/05/27 10:53:17;;;;;;;12.15;5.03;;;;;;;;;;5062218;28;20203;-62
2023/05/27 10:55:43;;;;;;;7.93;4.53;;;;;;;;;;5062652;28;20204;-61
2023/05/27 10:58:10;;;;;;;8.25;4.20;;;;;;;;;;5062888;28;20270;-62
2023/05/27 11:00:37;;;;;;;12.85;4.65;;;;;;;;;;5062030;28;20216;-62
2023/05/27 11:03:03;;;;;;;7.40;4.40;;;;;;;;;;5061980;28;20242;-62
2023/05/27 11:05:32;;;;;;;9.52;4.70;;;;;;;;;;5062205;28;20512;-61
2023/05/27 11:07:59;;;;;;;16.80;8.45;;;;;;;;;;5062520;28;20196;-61
2023/05/27 11:10:26;;;;;;;6.88;4.53;;;;;;;;;;5063348;28;20227;-61
2023/05/27 11:12:52;;;;;;;8.00;4.35;;;;;;;;;;5066089;28;20196;-62
2023/05/27 11:15:19;;;;;;;6.32;4.50;;;;;;;;;;5066155;28;20200;-61
2023/05/27 11:17:45;;;;;;;10.63;4.43;;;;;;;;;;5066423;28;20196;-61
2023/05/27 11:20:12;;;;;;;11.88;4.38;;;;;;;;;;5066039;28;20224;-61
2023/05/27 11:22:39;;;;;;;10.57;4.82;;;;;;;;;;5066127;28;20196;-61
2023/05/27 11:25:09;;;;;;;5.57;4.57;;;;;;;;;;5065786;28;20547;-61
2023/05/27 11:27:36;;;;;;;8.38;4.85;;;;;;;;;;5065958;28;20393;-61
2023/05/27 11:30:07;;;;;;;6.18;4.78;;;;;;;;;;5066075;28;20307;-61
2023/05/27 11:32:34;;;;;;;10.43;4.43;;;;;;;;;;5065764;28;20196;-63
2023/05/27 11:35:00;;;;;;;8.07;4.38;;;;;;;;;;5065818;28;20197;-62
2023/05/27 11:37:31;;;;;;;11.88;4.60;;;;;;;;;;5065752;28;20208;-62
2023/05/27 11:39:59;;;;;;;10.07;4.32;;;;;;;;;;5065606;28;20197;-62
2023/05/27 11:42:25;;;;;;;8.23;4.35;;;;;;;;;;5065789;28;20467;-62
2023/05/27 11:44:52;;;;;;;6.88;4.55;;;;;;;;;;5065845;28;20200;-62
2023/05/27 11:47:18;;;;;;;8.43;4.22;;;;;;;;;;5065549;28;20402;-62
2023/05/27 11:49:44;;;;;;;10.15;5.05;;;;;;;;;;5065599;28;20203;-62
2023/05/27 11:52:11;;;;;;;7.85;4.65;;;;;;;;;;5065519;28;20208;-62
2023/05/27 11:54:38;;;;;;;10.70;4.28;;;;;;;;;;5065493;28;20534;-62
2023/05/27 11:57:07;;;;;;;9.13;4.80;;;;;;;;;;5065532;28;20258;-62
2023/05/27 11:59:34;;;;;;;12.30;4.95;;;;;;;;;;5065258;28;20219;-62
2023/05/27 12:02:00;;;;;;;10.70;5.07;;;;;;;;;;5065081;28;20226;-62
2023/05/27 12:04:27;;;;;;;8.02;4.43;;;;;;;;;;5064839;28;20207;-62
2023/05/27 12:06:53;;;;;;;6.35;4.72;;;;;;;;;;5065448;28;20204;-62
2023/05/27 12:09:19;;;;;;;9.00;4.72;;;;;;;;;;5065265;28;20209;-62
2023/05/27 12:11:46;;;;;;;9.48;4.80;;;;;;;;;;5065013;28;20264;-62
2023/05/27 12:14:13;;;;;;;9.38;4.63;;;;;;;;;;5064949;28;20512;-62
2023/05/27 12:16:39;;;;;;;9.55;5.03;;;;;;;;;;5064912;28;20203;-61
2023/05/27 12:19:06;;;;;;;10.32;5.20;;;;;;;;;;5064837;28;20243;-62
2023/05/27 12:21:32;;;;;;;8.63;4.55;;;;;;;;;;5064492;28;20262;-62
2023/05/27 12:23:58;;;;;;;11.52;4.93;;;;;;;;;;5064724;28;20204;-62
2023/05/27 12:26:25;;;;;;;9.70;4.85;;;;;;;;;;5065026;28;20212;-62
2023/05/27 12:28:51;;;;;;;8.68;5.03;;;;;;;;;;5065039;28;20223;-62
2023/05/27 12:31:19;;;;;;;9.70;4.90;;;;;;;;;;5064979;28;20216;-62
2023/05/27 12:33:46;;;;;;;9.15;4.82;;;;;;;;;;5064746;28;20199;-62
2023/05/27 12:36:12;;;;;;;9.75;5.05;;;;;;;;;;5064901;28;20429;-62
2023/05/27 12:38:38;;;;;;;9.07;5.20;;;;;;;;;;5064573;28;20205;-62
2023/05/27 12:41:04;;;;;;;10.68;5.20;;;;;;;;;;5064551;28;20216;-62
2023/05/27 12:43:31;;;;;;;10.27;4.85;;;;;;;;;;5063999;28;20445;-62
2023/05/27 12:45:58;;;;;;;10.05;5.60;;;;;;;;;;5064338;28;20382;-62
2023/05/27 12:48:26;;;;;;;9.73;5.53;;;;;;;;;;5064478;28;20204;-62
2023/05/27 12:50:52;;;;;;;9.23;4.93;;;;;;;;;;5064447;28;20501;-62
2023/05/27 12:53:19;;;;;;;9.20;5.30;;;;;;;;;;5064298;28;20197;-62
2023/05/27 12:55:45;;;;;;;11.52;5.18;;;;;;;;;;5064373;28;20382;-62
2023/05/27 12:58:11;;;;;;;6.78;5.05;;;;;;;;;;5064097;28;20259;-62
2023/05/27 13:00:38;;;;;;;8.10;5.00;;;;;;;;;;5064064;28;20530;-62
2023/05/27 13:03:04;;;;;;;9.20;5.35;;;;;;;;;;5064459;28;20266;-62
2023/05/27 13:05:32;;;;;;;9.73;5.30;;;;;;;;;;5064141;28;20251;-62
2023/05/27 13:07:59;;;;;;;10.85;5.38;;;;;;;;;;5064061;28;20196;-62
2023/05/27 13:10:25;;;;;;;7.68;5.43;;;;;;;;;;5064009;28;20268;-62
2023/05/27 13:12:51;;;;;;;8.55;4.57;;;;;;;;;;5063653;28;20197;-62
2023/05/27 13:15:18;;;;;;;10.43;4.90;;;;;;;;;;5063629;28;20204;-62
2023/05/27 13:17:44;;;;;;;10.13;5.35;;;;;;;;;;5064075;28;20257;-62
2023/05/27 13:20:11;;;;;;;12.43;5.32;;;;;;;;;;5063865;28;20320;-62
2023/05/27 13:22:38;;;;;;;8.80;5.65;;;;;;;;;;5064116;28;20227;-62
2023/05/27 13:25:05;;;;;;;6.72;4.80;;;;;;;;;;5063751;28;20384;-62
2023/05/27 13:27:31;;;;;;;10.68;5.50;;;;;;;;;;5063250;28;20417;-62
2023/05/27 13:29:57;;;;;;;8.68;4.88;;;;;;;;;;5063354;28;20197;-62
2023/05/27 13:32:24;;;;;;;11.30;5.30;;;;;;;;;;5063277;28;20200;-62
2023/05/27 13:34:51;;;;;;;13.10;5.10;;;;;;;;;;5063803;28;20520;-62
2023/05/27 13:37:17;;;;;;;7.40;4.97;;;;;;;;;;5063334;28;20200;-62
2023/05/27 13:39:45;;;;;;;6.70;4.65;;;;;;;;;;5063187;28;20196;-62
2023/05/27 13:42:11;;;;;;;10.27;4.57;;;;;;;;;;5063420;28;20397;-62
2023/05/27 13:44:37;;;;;;;7.57;4.57;;;;;;;;;;5063610;28;20438;-62
2023/05/27 13:47:04;;;;;;;6.32;4.07;;;;;;;;;;5063698;28;20527;-62
2023/05/27 13:49:30;;;;;;;6.55;4.05;;;;;;;;;;5063486;28;20538;-62
2023/05/27 13:51:56;;;;;;;6.43;3.97;;;;;;;;;;5063144;28;20488;-62
2023/05/27 13:54:23;;;;;;;8.07;4.30;;;;;;;;;;5063215;28;20205;-62
2023/05/27 13:56:50;;;;;;;5.25;4.00;;;;;;;;;;5062920;28;20196;-62
2023/05/27 13:59:17;;;;;;;8.23;4.30;;;;;;;;;;5063234;28;20201;-62
2023/05/27 14:01:43;;;;;;;6.90;4.35;;;;;;;;;;5063165;28;20223;-62
2023/05/27 14:04:09;;;;;;;11.93;4.40;;;;;;;;;;5063104;28;20203;-62
2023/05/27 14:06:36;;;;;;;7.53;4.65;;;;;;;;;;5063548;28;20196;-62
2023/05/27 14:09:02;;;;;;;9.23;4.00;;;;;;;;;;5063375;28;20211;-62
2023/05/27 14:11:28;;;;;;;6.13;4.38;;;;;;;;;;5063443;28;20424;-62
2023/05/27 14:13:56;;;;;;;7.43;3.95;;;;;;;;;;5063098;28;20369;-62
2023/05/27 14:16:23;;;;;;;5.90;3.63;;;;;;;;;;5063726;28;20201;-62
2023/05/27 14:18:49;;;;;;;9.98;4.13;;;;;;;;;;5063823;28;20196;-62
2023/05/27 14:21:15;;;;;;;7.43;3.42;;;;;;;;;;5063020;28;20270;-62
2023/05/27 14:23:43;;;;;;;6.18;3.65;;;;;;;;;;5062984;28;20263;-62
2023/05/27 14:26:09;;;;;;;6.32;4.05;;;;;;;;;;5063002;28;20476;-62
2023/05/27 14:28:35;;;;;;;6.28;3.67;;;;;;;;;;5063355;28;20278;-62
2023/05/27 14:31:03;;;;;;;8.23;3.78;;;;;;;;;;5063145;28;20232;-62
2023/05/27 14:33:29;;;;;;;9.07;4.32;;;;;;;;;;5063397;28;20204;-62
2023/05/27 14:35:56;;;;;;;5.30;3.35;;;;;;;;;;5063322;28;20235;-62
2023/05/27 14:38:22;;;;;;;7.40;3.33;;;;;;;;;;5062928;28;20224;-62